M I D A S
Marine Information and Data Acquisition System
Tripno 1044 of the Zeeleeuw from 2006-03-03 08:01:59 to 2006-03-03 13:42:36
Back to CruiseResearch ActivitiesStationsMapUnderway DataData graphs

EquipmentUnitsComments
TimeDGPSUTC
LatitudeDGPSDM.mWGS84
LongitudeDGPSDM.mWGS84
SpeedMeteo Stationm/sRelative wind speed
DirectionMeteo StationdegRelative wind direction
TemperatureMeteo Stationdeg CelciusAir temperature
PressureMeteo StationPaAtmospheric pressure
HumidityMeteo Station%Relative humidity
Missing or incorrect values are displayed as -999
Metereological data collected by the RV Zeeleeuw from 2006-03-03 07:50:42 to 2006-03-03 13:57:16
Time Latitude Longitude Speed Direction Temperature Pressure Humidity
2006-03-03 07:51 51°13.613 2°56.039 -999 359 -0.3 99670 98
2006-03-03 07:52 51°13.639 2°55.943 -999 221 -0.3 99670 98
2006-03-03 07:53 51°13.678 2°55.819 -999 224 -0.2 99680 98
2006-03-03 07:54 51°13.708 2°55.717 -999 243 -0.2 99680 98
2006-03-03 07:55 51°13.725 2°55.736 -999 58 -0.2 99680 98
2006-03-03 07:56 51°13.723 2°55.721 -999 96 -0.2 99680 98
2006-03-03 07:57 51°13.747 2°55.715 -999 93 -0.2 99680 98
2006-03-03 07:58 51°13.825 2°55.64 -999 18 -0.2 99680 98
2006-03-03 07:59 51°13.949 2°55.54 -999 14 -0.2 99680 98
2006-03-03 08:00 51°14.084 2°55.445 -999 30 -0.2 99680 98
2006-03-03 08:01 51°14.223 2°55.317 -999 23 -0.1 99680 98
2006-03-03 08:02 51°14.338 2°55.108 -999 2 -0.2 99680 98
2006-03-03 08:03 51°14.399 2°54.817 -999 339 -0.2 99670 98
2006-03-03 08:04 51°14.409 2°54.467 -999 336 -0.1 99660 98
2006-03-03 08:05 51°14.328 2°54.128 -999 333 -0.1 99660 98
2006-03-03 08:06 51°14.205 2°53.813 -999 324 -999 99660 98
2006-03-03 08:07 51°14.098 2°53.479 -999 330 0.1 99650 97
2006-03-03 08:08 51°13.963 2°53.166 -999 333 0.1 99650 97
2006-03-03 08:09 51°13.849 2°52.829 -999 336 0.1 99650 97
2006-03-03 08:10 51°13.714 2°52.515 -999 330 0.1 99640 97
2006-03-03 08:11 51°13.593 2°52.187 -999 334 0.2 99640 96
2006-03-03 08:12 51°13.473 2°51.859 -999 330 0.1 99640 96
2006-03-03 08:13 51°13.341 2°51.541 -999 330 0.2 99650 96
2006-03-03 08:14 51°13.226 2°51.207 -999 332 0.1 99650 96
2006-03-03 08:15 51°13.092 2°50.891 -999 328 0.1 99640 95
2006-03-03 08:16 51°12.975 2°50.558 -999 331 0.1 99640 95
2006-03-03 08:17 51°12.847 2°50.234 -999 329 -999 99640 95
2006-03-03 08:18 51°12.722 2°49.908 -999 329 -999 99640 95
2006-03-03 08:19 51°12.606 2°49.575 -999 331 -999 99640 95
2006-03-03 08:20 51°12.485 2°49.248 -999 329 -0.1 99640 95
2006-03-03 08:21 51°12.385 2°48.903 -999 334 -0.1 99650 95
2006-03-03 08:22 51°12.278 2°48.562 -999 330 -0.1 99650 95
2006-03-03 08:23 51°12.179 2°48.215 -999 333 -0.1 99650 96
2006-03-03 08:24 51°12.082 2°47.867 -999 333 -0.1 99650 96
2006-03-03 08:25 51°11.983 2°47.52 -999 332 -0.1 99650 96
2006-03-03 08:26 51°11.895 2°47.167 -999 337 -0.1 99650 96
2006-03-03 08:27 51°11.806 2°46.813 -999 332 -999 99650 96
2006-03-03 08:28 51°11.714 2°46.462 -999 332 -999 99650 96
2006-03-03 08:29 51°11.626 2°46.108 -999 339 0.1 99650 96
2006-03-03 08:30 51°11.54 2°45.752 -999 331 0.1 99650 96
2006-03-03 08:31 51°11.442 2°45.405 -999 334 0.1 99650 96
2006-03-03 08:32 51°11.349 2°45.054 -999 333 0.1 99650 96
2006-03-03 08:33 51°11.253 2°44.705 -999 337 0.2 99650 96
2006-03-03 08:34 51°11.158 2°44.358 -999 337 0.2 99650 96
2006-03-03 08:35 51°11.071 2°44.005 -999 331 0.2 99650 95
2006-03-03 08:36 51°10.984 2°43.653 -999 333 0.2 99650 95
2006-03-03 08:37 51°10.899 2°43.3 -999 334 0.2 99650 95
2006-03-03 08:38 51°10.819 2°42.944 -999 331 0.2 99650 95
2006-03-03 08:39 51°10.734 2°42.591 -999 337 0.2 99650 95
2006-03-03 08:40 51°10.653 2°42.234 -999 337 0.2 99650 95
2006-03-03 08:41 51°10.569 2°41.88 -999 337 0.2 99640 95
2006-03-03 08:42 51°10.476 2°41.534 -999 334 0.2 99650 95
2006-03-03 08:43 51°10.388 2°41.184 -999 338 0.2 99640 95
2006-03-03 08:44 51°10.302 2°40.833 -999 338 0.3 99650 95
2006-03-03 08:45 51°10.22 2°40.481 -999 340 0.2 99640 95
2006-03-03 08:46 51°10.136 2°40.13 -999 339 0.2 99640 95
2006-03-03 08:47 51°10.05 2°39.779 -999 343 0.2 99640 95
2006-03-03 08:48 51°9.955 2°39.435 -999 344 0.3 99640 95
2006-03-03 08:49 51°9.868 2°39.085 -999 341 0.3 99640 95
2006-03-03 08:50 51°9.772 2°38.741 -999 340 0.4 99640 95
2006-03-03 08:51 51°9.677 2°38.405 -999 336 0.4 99640 95
2006-03-03 08:52 51°9.605 2°38.19 -999 43 0.4 99640 95
2006-03-03 08:53 51°9.554 2°38.028 -999 297 0.4 99650 95
2006-03-03 08:54 51°9.519 2°37.92 -999 299 0.4 99650 95
2006-03-03 08:55 51°9.517 2°37.887 -999 274 0.5 99650 95
2006-03-03 08:56 51°9.519 2°37.864 -999 272 0.5 99650 95
2006-03-03 08:57 51°9.52 2°37.839 -999 271 0.6 99650 95
2006-03-03 08:58 51°9.519 2°37.808 -999 280 0.6 99650 95
2006-03-03 08:59 51°9.514 2°37.774 -999 267 0.6 99650 95
2006-03-03 09:00 51°9.509 2°37.739 -999 265 0.6 99650 95
2006-03-03 09:01 51°9.499 2°37.702 -999 279 0.6 99650 94
2006-03-03 09:02 51°9.483 2°37.666 -999 304 0.6 99650 94
2006-03-03 09:03 51°9.467 2°37.632 -999 304 0.6 99650 95
2006-03-03 09:04 51°9.453 2°37.597 -999 290 0.7 99650 95
2006-03-03 09:05 51°9.44 2°37.56 -999 292 0.8 99660 95
2006-03-03 09:06 51°9.427 2°37.525 -999 290 0.8 99650 95
2006-03-03 09:07 51°9.415 2°37.488 -999 280 0.8 99660 94
2006-03-03 09:08 51°9.404 2°37.451 -999 275 0.8 99660 94
2006-03-03 09:09 51°9.393 2°37.413 -999 272 0.7 99660 94
2006-03-03 09:10 51°9.381 2°37.375 -999 264 0.7 99660 94
2006-03-03 09:11 51°9.371 2°37.337 -999 264 0.7 99650 94
2006-03-03 09:12 51°9.36 2°37.298 -999 264 0.7 99650 94
2006-03-03 09:13 51°9.349 2°37.259 -999 264 0.7 99650 94
2006-03-03 09:14 51°9.339 2°37.218 -999 261 0.7 99650 94
2006-03-03 09:15 51°9.33 2°37.177 -999 259 0.7 99650 93
2006-03-03 09:16 51°9.321 2°37.136 -999 257 0.7 99650 93
2006-03-03 09:17 51°9.312 2°37.095 -999 257 0.7 99650 93
2006-03-03 09:18 51°9.304 2°37.053 -999 257 0.7 99650 93
2006-03-03 09:19 51°9.296 2°37.012 -999 254 0.7 99660 93
2006-03-03 09:20 51°9.288 2°36.97 -999 253 0.7 99660 93
2006-03-03 09:21 51°9.281 2°36.929 -999 250 0.7 99660 93
2006-03-03 09:22 51°9.273 2°36.886 -999 248 0.7 99660 93
2006-03-03 09:23 51°9.265 2°36.844 -999 246 0.7 99660 93
2006-03-03 09:24 51°9.258 2°36.801 -999 237 0.8 99660 93
2006-03-03 09:25 51°9.251 2°36.758 -999 239 0.7 99660 93
2006-03-03 09:26 51°9.243 2°36.716 -999 234 0.8 99660 93
2006-03-03 09:27 51°9.237 2°36.673 -999 229 0.7 99650 93
2006-03-03 09:28 51°9.229 2°36.63 -999 220 0.7 99650 93
2006-03-03 09:29 51°9.222 2°36.587 -999 210 0.7 99660 92
2006-03-03 09:30 51°9.215 2°36.544 -999 218 0.7 99660 92
2006-03-03 09:31 51°9.208 2°36.501 -999 215 0.7 99650 92
2006-03-03 09:32 51°9.201 2°36.457 -999 215 0.7 99660 93
2006-03-03 09:33 51°9.194 2°36.413 -999 225 0.7 99660 92
2006-03-03 09:34 51°9.187 2°36.369 -999 237 0.7 99650 92
2006-03-03 09:35 51°9.181 2°36.324 -999 238 0.7 99650 92
2006-03-03 09:36 51°9.174 2°36.28 -999 245 0.7 99650 92
2006-03-03 09:37 51°9.168 2°36.236 -999 241 0.7 99650 92
2006-03-03 09:38 51°9.162 2°36.176 -999 238 0.7 99650 92
2006-03-03 09:39 51°9.166 2°36.092 -999 212 0.7 99650 92
2006-03-03 09:40 51°9.187 2°36.01 -999 156 0.7 99650 92
2006-03-03 09:41 51°9.219 2°35.953 -999 120 0.7 99650 92
2006-03-03 09:42 51°9.253 2°35.93 -999 104 0.8 99650 92
2006-03-03 09:43 51°9.275 2°35.936 -999 63 0.8 99650 92
2006-03-03 09:44 51°9.281 2°35.961 -999 37 0.8 99640 91
2006-03-03 09:45 51°9.264 2°35.992 -999 19 0.8 99650 92
2006-03-03 09:46 51°9.225 2°36.013 -999 5 0.8 99640 92
2006-03-03 09:47 51°9.171 2°36.006 -999 348 0.9 99640 92
2006-03-03 09:48 51°9.112 2°35.959 -999 326 0.9 99640 91
2006-03-03 09:49 51°9.069 2°35.866 -999 289 0.9 99640 91
2006-03-03 09:50 51°9.06 2°35.755 -999 237 0.9 99650 91
2006-03-03 09:51 51°9.081 2°35.667 -999 135 0.8 99650 91
2006-03-03 09:52 51°9.113 2°35.625 -999 97 0.9 99650 91
2006-03-03 09:53 51°9.132 2°35.625 -999 54 0.9 99650 91
2006-03-03 09:54 51°9.135 2°35.652 -999 45 0.9 99650 91
2006-03-03 09:55 51°9.12 2°35.688 -999 29 0.9 99650 91
2006-03-03 09:56 51°9.084 2°35.714 -999 9 0.8 99640 91
2006-03-03 09:57 51°9.031 2°35.711 -999 339 0.8 99640 91
2006-03-03 09:58 51°8.973 2°35.663 -999 319 0.8 99640 91
2006-03-03 09:59 51°8.93 2°35.567 -999 290 0.8 99640 91
2006-03-03 10:00 51°8.918 2°35.453 -999 253 0.8 99640 91
2006-03-03 10:01 51°8.936 2°35.353 -999 108 0.8 99630 91
2006-03-03 10:02 51°8.971 2°35.286 -999 91 0.9 99630 91
2006-03-03 10:03 51°8.996 2°35.16 -999 15 0.9 99630 91
2006-03-03 10:04 51°8.946 2°35.039 -999 325 1 99630 91
2006-03-03 10:05 51°8.875 2°35.059 -999 16 1 99630 91
2006-03-03 10:06 51°8.876 2°35.136 -999 36 0.9 99630 90
2006-03-03 10:07 51°8.887 2°35.157 -999 32 0.9 99640 91
2006-03-03 10:08 51°8.902 2°35.144 -999 99 0.9 99630 90
2006-03-03 10:09 51°8.917 2°35.106 -999 225 0.9 99640 91
2006-03-03 10:10 51°8.928 2°35.049 -999 176 1.1 99660 92
2006-03-03 10:11 51°8.937 2°34.972 -999 240 1.3 99650 91
2006-03-03 10:12 51°8.943 2°34.876 -999 241 1.5 99660 91
2006-03-03 10:13 51°8.902 2°34.739 -999 325 1.6 99630 90
2006-03-03 10:14 51°8.821 2°34.751 -999 14 1.5 99630 88
2006-03-03 10:15 51°8.777 2°34.876 -999 15 1.3 99620 88
2006-03-03 10:16 51°8.739 2°35.032 -999 18 1.2 99630 88
2006-03-03 10:17 51°8.709 2°35.19 -999 23 1.1 99630 89
2006-03-03 10:18 51°8.752 2°35.326 -999 27 1 99620 89
2006-03-03 10:19 51°8.769 2°35.445 -999 23 1 99620 89
2006-03-03 10:20 51°8.761 2°35.528 -999 20 1 99630 90
2006-03-03 10:21 51°8.745 2°35.599 -999 24 1 99630 89
2006-03-03 10:22 51°8.736 2°35.666 -999 33 1 99630 90
2006-03-03 10:23 51°8.743 2°35.736 -999 39 1 99630 90
2006-03-03 10:24 51°8.765 2°35.802 -999 39 0.9 99630 90
2006-03-03 10:25 51°8.793 2°35.869 -999 29 0.9 99630 90
2006-03-03 10:26 51°8.83 2°35.92 -999 34 0.9 99630 90
2006-03-03 10:27 51°8.876 2°35.957 -999 26 0.9 99640 90
2006-03-03 10:28 51°8.912 2°36 -999 31 0.9 99640 90
2006-03-03 10:29 51°8.94 2°36.05 -999 36 1 99640 90
2006-03-03 10:30 51°8.967 2°36.101 -999 30 1 99640 90
2006-03-03 10:31 51°8.995 2°36.152 -999 17 1 99640 90
2006-03-03 10:32 51°9.016 2°36.207 -999 12 1.1 99640 90
2006-03-03 10:33 51°9.039 2°36.262 -999 10 1.1 99650 90
2006-03-03 10:34 51°9.065 2°36.321 -999 9 1.2 99650 90
2006-03-03 10:35 51°9.088 2°36.387 -999 6 1.2 99650 90
2006-03-03 10:36 51°9.114 2°36.45 -999 13 1.2 99650 90
2006-03-03 10:37 51°9.139 2°36.515 -999 10 1.2 99650 89
2006-03-03 10:38 51°9.166 2°36.579 -999 5 1.3 99650 89
2006-03-03 10:39 51°9.195 2°36.641 -999 358 1.3 99660 89
2006-03-03 10:40 51°9.216 2°36.707 -999 359 1.3 99660 89
2006-03-03 10:41 51°9.24 2°36.77 -999 360 1.3 99660 89
2006-03-03 10:42 51°9.267 2°36.831 -999 359 1.3 99660 88
2006-03-03 10:43 51°9.287 2°36.896 -999 3 1.4 99660 88
2006-03-03 10:44 51°9.307 2°36.963 -999 2 1.4 99660 88
2006-03-03 10:45 51°9.332 2°37.026 -999 357 1.4 99660 88
2006-03-03 10:46 51°9.354 2°37.091 -999 354 1.4 99660 88
2006-03-03 10:47 51°9.371 2°37.16 -999 3 1.4 99660 88
2006-03-03 10:48 51°9.397 2°37.222 -999 6 1.4 99660 88
2006-03-03 10:49 51°9.424 2°37.284 -999 6 1.4 99660 88
2006-03-03 10:50 51°9.447 2°37.35 -999 6 1.4 99660 88
2006-03-03 10:51 51°9.466 2°37.419 -999 10 1.4 99660 88
2006-03-03 10:52 51°9.484 2°37.489 -999 14 1.4 99670 88
2006-03-03 10:53 51°9.509 2°37.555 -999 24 1.4 99660 88
2006-03-03 10:54 51°9.531 2°37.624 -999 14 1.3 99660 88
2006-03-03 10:55 51°9.539 2°37.698 -999 18 1.3 99660 88
2006-03-03 10:56 51°9.55 2°37.772 -999 18 1.3 99660 88
2006-03-03 10:57 51°9.553 2°37.853 -999 11 1.2 99650 88
2006-03-03 10:58 51°9.539 2°37.936 -999 5 1.2 99650 89
2006-03-03 10:59 51°9.495 2°38.007 -999 355 1.3 99650 89
2006-03-03 11:00 51°9.452 2°38.047 -999 348 1.4 99650 89
2006-03-03 11:01 51°9.433 2°38.117 -999 23 1.4 99650 89
2006-03-03 11:02 51°9.504 2°38.147 -999 34 1.3 99650 89
2006-03-03 11:03 51°9.623 2°38.096 -999 24 1.2 99640 89
2006-03-03 11:04 51°9.711 2°37.956 -999 7 1.3 99650 89
2006-03-03 11:05 51°9.683 2°37.814 -999 314 1.3 99650 89
2006-03-03 11:06 51°9.629 2°37.702 -999 318 1.3 99640 89
2006-03-03 11:07 51°9.568 2°37.588 -999 325 1.3 99650 90
2006-03-03 11:08 51°9.511 2°37.457 -999 331 1.3 99650 89
2006-03-03 11:09 51°9.48 2°37.298 -999 330 1.3 99650 90
2006-03-03 11:10 51°9.489 2°37.156 -999 18 1.4 99650 90
2006-03-03 11:11 51°9.501 2°37.033 -999 39 1.4 99640 90
2006-03-03 11:12 51°9.5 2°36.921 -999 36 1.6 99640 90
2006-03-03 11:13 51°9.493 2°36.816 -999 7 1.8 99640 91
2006-03-03 11:14 51°9.483 2°36.722 -999 7 1.9 99650 90
2006-03-03 11:15 51°9.465 2°36.638 -999 6 1.9 99650 90
2006-03-03 11:16 51°9.446 2°36.565 -999 6 2 99640 90
2006-03-03 11:17 51°9.425 2°36.491 -999 6 2 99640 89
2006-03-03 11:18 51°9.403 2°36.417 -999 6 2 99640 89
2006-03-03 11:19 51°9.376 2°36.341 -999 312 2 99640 89
2006-03-03 11:20 51°9.349 2°36.266 -999 306 2 99640 89
2006-03-03 11:21 51°9.322 2°36.193 -999 303 2.1 99640 89
2006-03-03 11:22 51°9.297 2°36.12 -999 299 2.1 99640 89
2006-03-03 11:23 51°9.273 2°36.048 -999 298 2.2 99640 89
2006-03-03 11:24 51°9.248 2°35.975 -999 279 2.2 99640 89
2006-03-03 11:25 51°9.223 2°35.904 -999 272 2.2 99640 88
2006-03-03 11:26 51°9.198 2°35.833 -999 267 2.1 99640 88
2006-03-03 11:27 51°9.173 2°35.764 -999 259 2.1 99630 87
2006-03-03 11:28 51°9.147 2°35.694 -999 254 2.1 99630 87
2006-03-03 11:29 51°9.122 2°35.626 -999 244 2 99630 87
2006-03-03 11:30 51°9.095 2°35.555 -999 243 2 99630 87
2006-03-03 11:31 51°9.07 2°35.487 -999 243 2 99630 87
2006-03-03 11:32 51°9.045 2°35.418 -999 243 2 99630 87
2006-03-03 11:33 51°9.02 2°35.347 -999 242 2 99630 86
2006-03-03 11:34 51°8.994 2°35.274 -999 243 2 99630 86
2006-03-03 11:35 51°8.97 2°35.204 -999 243 2 99630 86
2006-03-03 11:36 51°8.945 2°35.134 -999 226 2 99630 86
2006-03-03 11:37 51°8.92 2°35.061 -999 226 2.1 99630 86
2006-03-03 11:38 51°8.896 2°34.99 -999 223 2 99630 86
2006-03-03 11:39 51°8.871 2°34.922 -999 223 2.1 99630 86
2006-03-03 11:40 51°8.843 2°34.853 -999 223 2.1 99640 86
2006-03-03 11:41 51°8.816 2°34.79 -999 196 2.1 99630 85
2006-03-03 11:42 51°8.787 2°34.725 -999 179 2.3 99630 86
2006-03-03 11:43 51°8.76 2°34.663 -999 161 2.4 99640 86
2006-03-03 11:44 51°8.733 2°34.59 -999 146 2.3 99630 84
2006-03-03 11:45 51°8.713 2°34.504 -999 122 2.3 99640 84
2006-03-03 11:46 51°8.701 2°34.409 -999 117 2.1 99630 84
2006-03-03 11:47 51°8.697 2°34.315 -999 110 2.1 99640 84
2006-03-03 11:48 51°8.705 2°34.223 -999 100 2.1 99630 84
2006-03-03 11:49 51°8.729 2°34.146 -999 57 2 99630 84
2006-03-03 11:50 51°8.761 2°34.094 -999 50 1.9 99630 84
2006-03-03 11:51 51°8.787 2°34.069 -999 39 1.8 99630 85
2006-03-03 11:52 51°8.824 2°34.114 -999 358 1.7 99630 86
2006-03-03 11:53 51°8.86 2°34.246 -999 6 1.7 99630 87
2006-03-03 11:54 51°8.901 2°34.371 -999 345 1.8 99630 87
2006-03-03 11:55 51°8.9 2°34.479 -999 340 1.8 99630 87
2006-03-03 11:56 51°8.899 2°34.573 -999 340 1.9 99630 86
2006-03-03 11:57 51°8.897 2°34.66 -999 330 1.9 99630 86
2006-03-03 11:58 51°8.889 2°34.747 -999 335 1.9 99630 86
2006-03-03 11:59 51°8.884 2°34.828 -999 340 2 99640 86
2006-03-03 12:00 51°8.877 2°34.91 -999 338 2 99630 86
2006-03-03 12:01 51°8.872 2°34.99 -999 335 1.9 99630 86
2006-03-03 12:02 51°8.87 2°35.07 -999 338 2 99630 86
2006-03-03 12:03 51°8.867 2°35.152 -999 335 2 99630 86
2006-03-03 12:04 51°8.866 2°35.234 -999 339 2 99630 86
2006-03-03 12:05 51°8.865 2°35.319 -999 338 2 99640 86
2006-03-03 12:06 51°8.865 2°35.403 -999 346 2 99640 86
2006-03-03 12:07 51°8.865 2°35.49 -999 330 2 99640 86
2006-03-03 12:08 51°8.868 2°35.574 -999 336 2.1 99640 86
2006-03-03 12:09 51°8.87 2°35.661 -999 352 2 99640 86
2006-03-03 12:10 51°8.876 2°35.748 -999 352 2 99640 86
2006-03-03 12:11 51°8.885 2°35.832 -999 346 2 99640 86
2006-03-03 12:12 51°8.895 2°35.92 -999 356 2.1 99640 86
2006-03-03 12:13 51°8.903 2°36.006 -999 357 2.1 99640 85
2006-03-03 12:14 51°8.912 2°36.096 -999 354 2.1 99630 85
2006-03-03 12:15 51°8.922 2°36.183 -999 -999 2.1 99640 85
2006-03-03 12:16 51°8.942 2°36.266 -999 3 2.1 99630 84
2006-03-03 12:17 51°8.964 2°36.351 -999 5 2.1 99630 84
2006-03-03 12:18 51°8.986 2°36.437 -999 357 2.1 99630 84
2006-03-03 12:19 51°9.008 2°36.525 -999 3 2.2 99630 84
2006-03-03 12:20 51°9.031 2°36.614 -999 2 2.1 99620 84
2006-03-03 12:21 51°9.053 2°36.701 -999 359 2.1 99630 84
2006-03-03 12:22 51°9.073 2°36.792 -999 357 2.1 99630 84
2006-03-03 12:23 51°9.094 2°36.884 -999 3 2.1 99630 84
2006-03-03 12:24 51°9.115 2°36.975 -999 4 2.1 99630 83
2006-03-03 12:25 51°9.136 2°37.066 -999 2 2.2 99620 83
2006-03-03 12:26 51°9.157 2°37.16 -999 357 2.2 99630 83
2006-03-03 12:27 51°9.18 2°37.253 -999 2 2.2 99620 84
2006-03-03 12:28 51°9.202 2°37.349 -999 2 2.2 99630 84
2006-03-03 12:29 51°9.225 2°37.446 -999 6 2.2 99630 83
2006-03-03 12:30 51°9.252 2°37.538 -999 2 2.2 99630 83
2006-03-03 12:31 51°9.278 2°37.623 -999 3 2.2 99630 84
2006-03-03 12:32 51°9.306 2°37.698 -999 9 2.2 99630 83
2006-03-03 12:33 51°9.334 2°37.759 -999 17 2.2 99630 84
2006-03-03 12:34 51°9.365 2°37.813 -999 10 2.3 99630 83
2006-03-03 12:35 51°9.398 2°37.866 -999 9 2.3 99640 84
2006-03-03 12:36 51°9.429 2°37.923 -999 10 2.2 99630 83
2006-03-03 12:37 51°9.456 2°37.986 -999 344 2.3 99640 84
2006-03-03 12:38 51°9.474 2°38.057 -999 353 2.3 99640 84
2006-03-03 12:39 51°9.488 2°38.129 -999 336 2.3 99630 84
2006-03-03 12:40 51°9.498 2°38.202 -999 338 2.3 99630 84
2006-03-03 12:41 51°9.501 2°38.286 -999 317 2.3 99630 84
2006-03-03 12:42 51°9.484 2°38.369 -999 296 2.2 99630 83
2006-03-03 12:43 51°9.462 2°38.434 -999 285 2.3 99630 84
2006-03-03 12:44 51°9.446 2°38.491 -999 287 2.3 99630 84
2006-03-03 12:45 51°9.434 2°38.543 -999 286 2.4 99620 84
2006-03-03 12:46 51°9.425 2°38.59 -999 283 2.3 99620 84
2006-03-03 12:47 51°9.416 2°38.637 -999 281 2.4 99620 84
2006-03-03 12:48 51°9.409 2°38.704 -999 319 2.4 99620 84
2006-03-03 12:49 51°9.425 2°38.79 -999 -999 2.4 99620 84
2006-03-03 12:50 51°9.478 2°39.007 -999 350 2.4 99610 84
2006-03-03 12:51 51°9.528 2°39.345 -999 352 2.4 99600 84
2006-03-03 12:52 51°9.584 2°39.697 -999 350 2.4 99600 84
2006-03-03 12:53 51°9.642 2°40.048 -999 355 2.4 99600 84
2006-03-03 12:54 51°9.703 2°40.398 -999 348 2.4 99600 84
2006-03-03 12:55 51°9.765 2°40.749 -999 353 2.5 99600 84
2006-03-03 12:56 51°9.827 2°41.095 -999 349 2.4 99600 84
2006-03-03 12:57 51°9.892 2°41.456 -999 351 2.5 99590 84
2006-03-03 12:58 51°9.958 2°41.812 -999 356 2.5 99600 84
2006-03-03 12:59 51°10.029 2°42.165 -999 357 2.5 99600 84
2006-03-03 13:00 51°10.139 2°42.496 -999 357 2.5 99590 84
2006-03-03 13:01 51°10.248 2°42.828 -999 353 2.4 99590 84
2006-03-03 13:02 51°10.355 2°43.16 -999 358 2.4 99580 85
2006-03-03 13:03 51°10.462 2°43.478 -999 357 2.4 99590 85
2006-03-03 13:04 51°10.575 2°43.809 -999 358 2.4 99590 85
2006-03-03 13:05 51°10.687 2°44.136 -999 354 2.4 99590 85
2006-03-03 13:06 51°10.805 2°44.463 -999 359 2.3 99580 85
2006-03-03 13:07 51°10.923 2°44.784 -999 360 2.4 99590 85
2006-03-03 13:08 51°11.043 2°45.117 -999 354 2.3 99590 84
2006-03-03 13:09 51°11.155 2°45.449 -999 357 2.4 99590 85
2006-03-03 13:10 51°11.271 2°45.779 -999 354 2.4 99580 84
2006-03-03 13:11 51°11.386 2°46.108 -999 355 2.4 99580 84
2006-03-03 13:12 51°11.502 2°46.431 -999 352 2.5 99590 85
2006-03-03 13:13 51°11.615 2°46.754 -999 353 2.5 99580 85
2006-03-03 13:14 51°11.73 2°47.081 -999 353 2.5 99580 84
2006-03-03 13:15 51°11.845 2°47.41 -999 357 2.6 99570 85
2006-03-03 13:16 51°11.962 2°47.739 -999 359 2.5 99580 84
2006-03-03 13:17 51°12.079 2°48.07 -999 356 2.5 99570 84
2006-03-03 13:18 51°12.196 2°48.402 -999 356 2.5 99570 84
2006-03-03 13:19 51°12.314 2°48.735 -999 356 2.5 99570 84
2006-03-03 13:20 51°12.431 2°49.072 -999 357 2.4 99570 84
2006-03-03 13:21 51°12.551 2°49.407 -999 356 2.5 99570 84
2006-03-03 13:22 51°12.67 2°49.746 -999 354 2.5 99560 84
2006-03-03 13:23 51°12.789 2°50.085 -999 356 2.5 99570 84
2006-03-03 13:24 51°12.913 2°50.418 -999 2 2.5 99570 85
2006-03-03 13:25 51°13.047 2°50.741 -999 358 2.5 99580 85
2006-03-03 13:26 51°13.183 2°51.061 -999 357 2.5 99580 85
2006-03-03 13:27 51°13.318 2°51.384 -999 358 2.5 99590 86
2006-03-03 13:28 51°13.452 2°51.71 -999 358 2.5 99570 86
2006-03-03 13:29 51°13.588 2°52.033 -999 -999 2.4 99580 86
2006-03-03 13:30 51°13.723 2°52.357 -999 360 2.4 99570 85
2006-03-03 13:31 51°13.855 2°52.672 -999 -999 2.5 99570 86
2006-03-03 13:32 51°13.94 2°52.88 -999 355 2.5 99580 86
2006-03-03 13:33 51°14.036 2°53.106 -999 1 2.6 99580 86
2006-03-03 13:34 51°14.158 2°53.438 -999 354 2.6 99570 86
2006-03-03 13:35 51°14.265 2°53.791 -999 356 2.5 99580 86
2006-03-03 13:36 51°14.364 2°54.151 -999 349 2.5 99570 85
2006-03-03 13:37 51°14.415 2°54.523 -999 339 2.5 99570 85
2006-03-03 13:38 51°14.39 2°54.876 -999 331 2.4 99570 85
2006-03-03 13:39 51°14.315 2°55.146 -999 328 2.4 99570 85
2006-03-03 13:40 51°14.217 2°55.316 -999 311 2.4 99590 85
2006-03-03 13:41 51°14.103 2°55.42 -999 301 2.4 99600 85
2006-03-03 13:42 51°13.99 2°55.507 -999 313 2.5 99600 85
2006-03-03 13:43 51°13.889 2°55.586 -999 296 2.5 99590 85
2006-03-03 13:44 51°13.8 2°55.658 -999 275 2.6 99600 85
2006-03-03 13:45 51°13.73 2°55.752 -999 283 2.6 99590 85
2006-03-03 13:46 51°13.677 2°55.862 -999 320 2.6 99590 84
2006-03-03 13:47 51°13.641 2°55.956 -999 321 2.7 99590 84
2006-03-03 13:48 51°13.62 2°56.03 -999 309 2.7 99590 83
2006-03-03 13:49 51°13.605 2°56.078 -999 282 2.7 99590 83
2006-03-03 13:50 51°13.598 2°56.091 -999 255 2.7 99590 82
2006-03-03 13:51 51°13.597 2°56.092 -999 276 2.7 99590 82
2006-03-03 13:52 51°13.596 2°56.095 -999 274 2.7 99600 81
2006-03-03 13:53 51°13.598 2°56.096 -999 266 2.7 99590 81
2006-03-03 13:54 51°13.598 2°56.095 -999 262 2.8 99590 80
2006-03-03 13:55 51°13.598 2°56.094 -999 254 2.7 99590 80
2006-03-03 13:56 51°13.599 2°56.095 -999 259 2.7 99590 80